Time;durP1;ratioP1;P1;durP2;ratioP2;P2;SDS_P1;SDS_P2;PMS_P1;PMS_P2;Temp;Humidity;BMP_temperature;BMP_pressure;BME280_temperature;BME280_humidity;BME280_pressure;Samples;Min_cycle;Max_cycle;Signal;HPM_P1;HPM_P2
2022/09/08 00:01:44;;;;;;;1.25;0.30;;;18.00;99.90;;;;;;4985487;28;20056;-76
2022/09/08 00:04:10;;;;;;;1.75;0.30;;;18.00;99.90;;;;;;4984896;28;20018;-77
2022/09/08 00:06:36;;;;;;;2.55;0.30;;;18.10;99.90;;;;;;4981367;28;20373;-76
2022/09/08 00:09:02;;;;;;;1.98;0.40;;;18.00;99.90;;;;;;4983959;28;20045;-77
2022/09/08 00:11:30;;;;;;;1.30;0.30;;;18.00;99.90;;;;;;4982168;28;20113;-75
2022/09/08 00:14:03;;;;;;;1.30;0.40;;;18.00;99.90;;;;;;4981661;28;20042;-77
2022/09/08 00:16:30;;;;;;;1.30;0.30;;;18.10;99.90;;;;;;4997879;28;20472;-75
2022/09/08 00:18:56;;;;;;;2.03;0.40;;;18.10;99.90;;;;;;4980615;28;20026;-75
2022/09/08 00:21:25;;;;;;;1.52;0.35;;;18.10;99.90;;;;;;4981487;28;20086;-77
2022/09/08 00:23:50;;;;;;;2.43;0.40;;;18.00;99.90;;;;;;4979956;28;20450;-75
2022/09/08 00:26:17;;;;;;;1.30;0.38;;;18.10;99.90;;;;;;4984450;28;20324;-78
2022/09/08 00:28:43;;;;;;;2.03;0.50;;;18.00;99.90;;;;;;4985260;28;20033;-76
2022/09/08 00:31:09;;;;;;;3.67;0.63;;;18.00;99.90;;;;;;4985158;28;20497;-76
2022/09/08 00:33:34;;;;;;;3.38;0.50;;;17.90;99.90;;;;;;4986139;28;20031;-76
2022/09/08 00:36:03;;;;;;;2.50;0.70;;;17.80;99.90;;;;;;4986741;28;20031;-76
2022/09/08 00:38:30;;;;;;;2.10;0.60;;;17.70;99.90;;;;;;4988961;28;20032;-75
2022/09/08 00:40:57;;;;;;;2.70;0.70;;;17.70;99.90;;;;;;4985387;28;20050;-77
2022/09/08 00:43:38;;;;;;;3.03;0.88;;;17.80;99.90;;;;;;4985425;28;20030;-77
2022/09/08 00:46:14;;;;;;;2.80;0.55;;;17.90;99.90;;;;;;4985612;28;20071;-75
2022/09/08 00:48:54;;;;;;;1.90;0.70;;;17.90;99.90;;;;;;4985411;28;20022;-78
2022/09/08 00:51:21;;;;;;;;;;;17.80;99.90;;;;;;4986699;28;20023;-83
2022/09/08 00:53:47;;;;;;;4.75;0.80;;;17.70;99.90;;;;;;4984330;28;19992;-86
2022/09/08 00:56:13;;;;;;;4.53;0.60;;;17.50;99.90;;;;;;4985476;28;20050;-77
2022/09/08 00:58:40;;;;;;;6.20;0.80;;;17.30;99.90;;;;;;4988271;28;20030;-78
2022/09/08 01:01:06;;;;;;;9.18;1.15;;;17.10;99.90;;;;;;4987787;28;20018;-83
2022/09/08 01:03:33;;;;;;;5.97;1.52;;;16.90;99.90;;;;;;4983822;28;20579;-81
2022/09/08 01:06:21;;;;;;;4.18;0.90;;;16.80;99.90;;;;;;4987177;28;20026;-80
2022/09/08 01:14:45;;;;;;;2.83;0.63;;;16.80;99.90;;;;;;4986519;28;20038;-79
2022/09/08 01:17:21;;;;;;;3.85;0.77;;;16.70;99.90;;;;;;4985054;28;20108;-82
2022/09/08 01:19:48;;;;;;;5.57;0.82;;;16.70;99.90;;;;;;4986696;28;20030;-83
2022/09/08 01:22:34;;;;;;;2.45;0.52;;;16.80;99.90;;;;;;4985510;28;20022;-79
2022/09/08 01:25:18;;;;;;;2.92;0.60;;;16.80;99.90;;;;;;4987151;28;20281;-83
2022/09/08 01:27:48;;;;;;;1.75;0.50;;;16.70;99.90;;;;;;4985194;28;20022;-80
2022/09/08 01:30:14;;;;;;;4.22;0.60;;;16.80;99.90;;;;;;4980241;28;20030;-80
2022/09/08 01:32:42;;;;;;;4.68;0.60;;;16.80;99.90;;;;;;4988077;28;20513;-77
2022/09/08 01:35:08;;;;;;;5.00;0.63;;;16.80;99.90;;;;;;4970707;28;20105;-84
2022/09/08 01:37:34;;;;;;;3.25;0.60;;;16.70;99.90;;;;;;4988745;28;20042;-80
2022/09/08 01:40:00;;;;;;;4.10;0.60;;;16.80;99.90;;;;;;4997602;28;20053;-84
2022/09/08 01:42:26;;;;;;;4.40;0.70;;;16.80;99.90;;;;;;4987809;28;20443;-78
2022/09/08 01:44:51;;;;;;;2.45;0.50;;;16.90;99.90;;;;;;4986353;28;20089;-78
2022/09/08 01:47:17;;;;;;;3.42;0.40;;;16.90;99.90;;;;;;4977835;28;20107;-78
2022/09/08 01:49:43;;;;;;;2.70;0.50;;;16.80;99.90;;;;;;4986223;28;20061;-84
2022/09/08 01:52:09;;;;;;;4.68;0.70;;;16.80;99.90;;;;;;4983799;28;20034;-76
2022/09/08 01:54:34;;;;;;;4.20;0.50;;;16.80;99.90;;;;;;4985570;28;20030;-81
2022/09/08 01:57:00;;;;;;;4.30;0.43;;;16.80;99.90;;;;;;4985502;28;20045;-81
2022/09/08 01:59:26;;;;;;;4.15;0.40;;;16.80;99.90;;;;;;4985215;28;20050;-77
2022/09/08 02:01:53;;;;;;;3.78;0.40;;;16.90;99.90;;;;;;4984118;28;20100;-75
2022/09/08 02:04:19;;;;;;;5.20;0.60;;;16.90;99.90;;;;;;4984301;28;20027;-81
2022/09/08 02:06:45;;;;;;;4.28;0.70;;;16.90;99.90;;;;;;4985925;28;20034;-79
2022/09/08 02:09:11;;;;;;;2.72;0.57;;;16.90;99.90;;;;;;4984091;28;20033;-75
2022/09/08 02:11:37;;;;;;;3.05;0.50;;;16.90;99.90;;;;;;4986533;28;20037;-75
2022/09/08 02:14:03;;;;;;;2.80;0.47;;;17.00;99.90;;;;;;4996085;28;20022;-77
2022/09/08 02:16:29;;;;;;;2.33;0.35;;;17.00;99.90;;;;;;4993528;28;20070;-74
2022/09/08 02:18:56;;;;;;;3.20;0.28;;;17.10;99.90;;;;;;4984229;28;20023;-76
2022/09/08 02:21:24;;;;;;;5.00;0.40;;;17.00;99.90;;;;;;4983644;28;20038;-81
2022/09/08 02:23:51;;;;;;;1.83;0.40;;;17.00;99.90;;;;;;4980331;28;20069;-76
2022/09/08 02:26:26;;;;;;;1.40;0.40;;;17.10;99.90;;;;;;4987161;28;20081;-75
2022/09/08 02:28:53;;;;;;;1.10;0.30;;;17.00;99.90;;;;;;4983938;28;20027;-76
2022/09/08 02:31:23;;;;;;;1.70;0.32;;;17.00;99.90;;;;;;4983908;28;20027;-81
2022/09/08 02:33:49;;;;;;;2.90;0.30;;;17.00;99.90;;;;;;4983218;28;20046;-80
2022/09/08 02:36:16;;;;;;;2.33;0.40;;;17.00;99.90;;;;;;4966835;28;20030;-76
2022/09/08 02:38:41;;;;;;;2.00;0.52;;;17.00;99.90;;;;;;4986204;28;20496;-75
2022/09/08 02:41:07;;;;;;;1.85;0.40;;;16.90;99.90;;;;;;4982732;28;20050;-78
2022/09/08 02:43:35;;;;;;;1.42;0.40;;;16.80;99.90;;;;;;4967043;28;20083;-82
2022/09/08 02:46:06;;;;;;;2.17;0.40;;;16.90;99.90;;;;;;4983162;28;20026;-81
2022/09/08 02:48:31;;;;;;;3.83;0.50;;;16.90;99.90;;;;;;4983344;28;20045;-78
2022/09/08 02:51:05;;;;;;;1.80;0.60;;;16.80;99.90;;;;;;4983370;28;20501;-79
2022/09/08 02:53:31;;;;;;;1.88;0.50;;;16.80;99.90;;;;;;4982075;28;20026;-82
2022/09/08 02:55:58;;;;;;;3.08;0.50;;;16.80;99.90;;;;;;4983816;28;20054;-81
2022/09/08 02:58:24;;;;;;;1.30;0.32;;;16.80;99.90;;;;;;4982689;28;20030;-77
2022/09/08 03:00:51;;;;;;;2.25;0.40;;;16.80;99.90;;;;;;4984792;28;20033;-76
2022/09/08 03:03:16;;;;;;;1.63;0.50;;;16.80;99.90;;;;;;4981928;28;20117;-76
2022/09/08 03:05:42;;;;;;;2.05;0.40;;;17.00;99.90;;;;;;4968226;28;20257;-77
2022/09/08 03:08:08;;;;;;;1.70;0.50;;;16.90;99.90;;;;;;4982063;28;20177;-76
2022/09/08 03:10:35;;;;;;;2.72;0.60;;;16.80;99.90;;;;;;4982232;28;20486;-76
2022/09/08 03:13:02;;;;;;;2.38;0.60;;;16.90;99.90;;;;;;4983071;28;20368;-77
2022/09/08 03:15:29;;;;;;;1.83;0.50;;;16.80;99.90;;;;;;4983314;28;20026;-75
2022/09/08 03:17:55;;;;;;;1.17;0.40;;;16.80;99.90;;;;;;4977549;28;20498;-74
2022/09/08 03:20:22;;;;;;;3.63;0.80;;;16.80;99.90;;;;;;4983511;28;20061;-80
2022/09/08 03:22:47;;;;;;;2.53;0.60;;;16.80;99.90;;;;;;4966240;28;20038;-75
2022/09/08 03:25:14;;;;;;;2.70;0.57;;;16.70;99.90;;;;;;4983652;28;20074;-78
2022/09/08 03:27:39;;;;;;;2.80;0.60;;;16.80;99.90;;;;;;4985206;28;20378;-75
2022/09/08 03:30:08;;;;;;;1.98;0.60;;;16.70;99.90;;;;;;4993452;28;20026;-79
2022/09/08 03:32:35;;;;;;;2.10;0.90;;;16.70;99.90;;;;;;4985379;28;20463;-75
2022/09/08 03:35:01;;;;;;;2.42;0.93;;;16.70;99.90;;;;;;4969007;28;20062;-76
2022/09/08 03:37:27;;;;;;;3.88;0.80;;;16.70;99.90;;;;;;4984567;28;20038;-81
2022/09/08 03:39:54;;;;;;;3.30;0.77;;;16.80;99.90;;;;;;4983408;28;20049;-80
2022/09/08 03:42:19;;;;;;;2.08;0.60;;;16.70;99.90;;;;;;4982634;28;20040;-78
2022/09/08 03:44:45;;;;;;;3.15;0.75;;;16.80;99.90;;;;;;4983165;28;20027;-81
2022/09/08 03:47:11;;;;;;;2.40;0.80;;;16.90;99.90;;;;;;4983038;28;20031;-76
2022/09/08 03:49:36;;;;;;;3.25;0.80;;;16.80;99.90;;;;;;4978525;28;20475;-75
2022/09/08 03:52:03;;;;;;;2.45;0.70;;;16.80;99.90;;;;;;4985725;28;20033;-81
2022/09/08 03:54:47;;;;;;;3.03;0.70;;;16.80;99.90;;;;;;4984376;28;20027;-81
2022/09/08 03:57:18;;;;;;;2.47;0.80;;;16.90;99.90;;;;;;4982793;28;20038;-75
2022/09/08 03:59:44;;;;;;;2.38;0.82;;;16.90;99.90;;;;;;4986141;28;20030;-76
2022/09/08 04:02:10;;;;;;;2.58;0.65;;;16.80;99.90;;;;;;4988107;28;20125;-76
2022/09/08 04:04:37;;;;;;;2.60;0.73;;;16.80;99.90;;;;;;4988469;28;20134;-75
2022/09/08 04:07:03;;;;;;;2.67;0.90;;;16.90;99.90;;;;;;4988328;28;20118;-76
2022/09/08 04:09:29;;;;;;;2.25;0.75;;;16.80;99.90;;;;;;4986213;28;20113;-77
2022/09/08 04:11:54;;;;;;;3.13;0.60;;;16.80;99.90;;;;;;4973506;28;20150;-75
2022/09/08 04:14:20;;;;;;;1.48;0.70;;;16.80;99.90;;;;;;4987839;28;20487;-83
2022/09/08 04:16:46;;;;;;;2.50;0.80;;;16.80;99.90;;;;;;4987844;28;20039;-82
2022/09/08 04:19:12;;;;;;;2.22;0.90;;;16.80;99.90;;;;;;4985119;28;20105;-83
2022/09/08 04:21:38;;;;;;;2.67;0.70;;;16.80;99.90;;;;;;4981249;28;20035;-81
2022/09/08 04:24:03;;;;;;;2.63;0.77;;;16.80;99.90;;;;;;4988953;28;20398;-84
2022/09/08 04:26:29;;;;;;;1.55;0.70;;;16.90;99.90;;;;;;4970786;28;20037;-83
2022/09/08 04:28:56;;;;;;;3.42;0.90;;;16.80;99.90;;;;;;4984707;28;20100;-83
2022/09/08 04:31:21;;;;;;;2.00;0.60;;;16.80;99.90;;;;;;4968932;28;20109;-80
2022/09/08 04:33:48;;;;;;;3.10;0.60;;;16.90;99.90;;;;;;4986207;28;20114;-78
2022/09/08 04:36:19;;;;;;;2.15;0.65;;;16.90;99.90;;;;;;4986843;28;20045;-81
2022/09/08 04:38:45;;;;;;;2.25;0.60;;;17.00;99.90;;;;;;4969828;28;20033;-83
2022/09/08 04:41:13;;;;;;;2.55;0.60;;;17.00;99.90;;;;;;4986273;28;20059;-77
2022/09/08 04:43:40;;;;;;;5.10;0.60;;;17.00;99.90;;;;;;4986348;28;20065;-81
2022/09/08 04:46:12;;;;;;;3.65;0.75;;;17.00;99.90;;;;;;4981388;28;20026;-85
2022/09/08 04:48:39;;;;;;;3.67;0.60;;;17.00;99.90;;;;;;4987989;28;20031;-81
2022/09/08 04:51:06;;;;;;;2.90;0.60;;;16.90;99.90;;;;;;4986977;28;20030;-90
2022/09/08 04:53:35;;;;;;;2.45;0.60;;;17.00;99.90;;;;;;4973318;28;20117;-87
2022/09/08 04:56:02;;;;;;;2.33;0.80;;;17.00;99.90;;;;;;4987203;28;20042;-87
2022/09/08 04:58:29;;;;;;;4.28;1.33;;;16.90;99.90;;;;;;4986067;28;20034;-84
2022/09/08 05:01:11;;;;;;;4.95;1.90;;;16.80;99.90;;;;;;4986451;28;20283;-83
2022/09/08 05:03:38;;;;;;;3.25;0.90;;;16.60;99.90;;;;;;4986179;28;20038;-81
2022/09/08 05:06:05;;;;;;;2.38;0.70;;;16.60;99.90;;;;;;4982031;28;20493;-79
2022/09/08 05:08:31;;;;;;;5.90;1.20;;;16.60;99.90;;;;;;4984367;28;20177;-82
2022/09/08 05:10:58;;;;;;;3.25;0.90;;;16.60;99.90;;;;;;5000694;28;20045;-81
2022/09/08 05:13:24;;;;;;;5.07;1.10;;;16.50;99.90;;;;;;4984249;28;20034;-80
2022/09/08 05:15:49;;;;;;;3.78;1.40;;;16.50;99.90;;;;;;4969731;28;20051;-83
2022/09/08 05:18:15;;;;;;;4.93;0.90;;;16.50;99.90;;;;;;4997791;28;20073;-85
2022/09/08 05:20:41;;;;;;;3.63;0.95;;;16.50;99.90;;;;;;4986551;28;20026;-79
2022/09/08 05:23:07;;;;;;;3.20;0.82;;;16.40;99.90;;;;;;5000234;28;20398;-82
2022/09/08 05:25:33;;;;;;;3.45;0.85;;;16.30;99.90;;;;;;4955102;28;20041;-85
2022/09/08 05:27:58;;;;;;;2.42;0.70;;;16.30;99.90;;;;;;4996002;28;20495;-81
2022/09/08 05:30:25;;;;;;;4.07;0.95;;;16.20;99.90;;;;;;4984173;28;20030;-80
2022/09/08 05:32:51;;;;;;;3.80;0.50;;;16.20;99.90;;;;;;4978883;28;20073;-79
2022/09/08 05:35:17;;;;;;;1.85;0.50;;;16.30;99.90;;;;;;4977460;28;20030;-76
2022/09/08 05:37:42;;;;;;;2.25;0.50;;;16.30;99.90;;;;;;4983609;28;20101;-80
2022/09/08 05:40:09;;;;;;;1.92;0.45;;;16.40;99.90;;;;;;4985772;28;20462;-79
2022/09/08 05:42:34;;;;;;;3.20;0.40;;;16.40;99.90;;;;;;4986009;28;20565;-78
2022/09/08 05:45:00;;;;;;;1.17;0.30;;;16.40;99.90;;;;;;4985095;28;20035;-79
2022/09/08 05:47:26;;;;;;;4.22;1.10;;;16.30;99.90;;;;;;5001991;28;20042;-81
2022/09/08 05:49:52;;;;;;;7.55;1.30;;;16.20;99.90;;;;;;4985574;28;20088;-78
2022/09/08 05:52:18;;;;;;;2.38;0.63;;;16.20;99.90;;;;;;4977860;28;20034;-82
2022/09/08 05:54:43;;;;;;;1.83;0.50;;;16.20;99.90;;;;;;4976446;28;20126;-81
2022/09/08 05:57:09;;;;;;;2.53;0.50;;;16.20;99.90;;;;;;4984396;28;20093;-82
2022/09/08 05:59:34;;;;;;;1.30;0.45;;;16.30;99.90;;;;;;4971538;28;20031;-82
2022/09/08 06:02:00;;;;;;;1.52;0.50;;;16.30;99.90;;;;;;4979243;28;20038;-80
2022/09/08 06:04:26;;;;;;;1.15;0.35;;;16.40;99.90;;;;;;4974770;28;20030;-79
2022/09/08 06:06:52;;;;;;;1.52;0.30;;;16.40;99.90;;;;;;4980843;28;20561;-78
2022/09/08 06:09:18;;;;;;;2.28;0.40;;;16.40;99.90;;;;;;5000536;28;20344;-81
2022/09/08 06:11:43;;;;;;;2.47;0.40;;;16.40;99.90;;;;;;4977168;28;20041;-83
2022/09/08 06:14:10;;;;;;;1.52;0.30;;;16.40;99.90;;;;;;4985988;28;20026;-82
2022/09/08 06:16:36;;;;;;;1.77;0.40;;;16.40;99.90;;;;;;4983885;28;20042;-80
2022/09/08 06:19:02;;;;;;;2.40;0.40;;;16.40;99.90;;;;;;4967045;28;20034;-82
2022/09/08 06:21:30;;;;;;;1.67;0.40;;;16.40;99.90;;;;;;4975100;28;20042;-80
2022/09/08 06:23:59;;;;;;;2.25;0.40;;;16.50;99.90;;;;;;4997160;28;20054;-83
2022/09/08 06:26:50;;;;;;;2.80;0.60;;;16.50;99.90;;;;;;4980400;28;20426;-78
2022/09/08 06:29:42;;;;;;;2.13;0.70;;;16.40;99.90;;;;;;4982252;28;20041;-84
2022/09/08 06:32:33;;;;;;;2.08;0.73;;;16.40;99.90;;;;;;4976468;28;20105;-77
2022/09/08 06:35:12;;;;;;;1.98;0.63;;;16.30;99.90;;;;;;4983942;28;20030;-84
2022/09/08 06:37:51;;;;;;;3.38;0.90;;;16.40;99.90;;;;;;4984879;28;20054;-83
2022/09/08 06:40:23;;;;;;;3.88;1.38;;;16.40;99.90;;;;;;4961143;28;20644;-85
2022/09/08 06:42:58;;;;;;;3.60;0.73;;;16.40;99.90;;;;;;4978820;28;20068;-84
2022/09/08 06:45:42;;;;;;;3.58;0.90;;;16.40;99.90;;;;;;4979444;28;20134;-86
2022/09/08 06:48:23;;;;;;;2.05;0.82;;;16.40;99.90;;;;;;4981958;28;20030;-76
2022/09/08 06:51:13;;;;;;;3.80;0.75;;;16.40;99.90;;;;;;4979384;28;20042;-81
2022/09/08 06:53:44;;;;;;;2.53;0.70;;;16.50;99.90;;;;;;4985355;28;20281;-82
2022/09/08 06:56:41;;;;;;;2.38;0.57;;;16.50;99.90;;;;;;4977167;28;20046;-79
2022/09/08 06:59:22;;;;;;;1.45;0.40;;;16.40;99.90;;;;;;4978001;28;20352;-84
2022/09/08 07:02:05;;;;;;;2.00;0.60;;;16.50;99.90;;;;;;4977461;28;20104;-80
2022/09/08 07:04:48;;;;;;;3.03;0.65;;;16.40;99.90;;;;;;4983642;28;20065;-81
2022/09/08 07:07:39;;;;;;;2.75;0.60;;;16.40;99.90;;;;;;4961493;28;20128;-82
2022/09/08 07:10:14;;;;;;;2.33;0.68;;;16.40;99.90;;;;;;4984471;28;20038;-81
2022/09/08 07:12:43;;;;;;;2.92;0.60;;;16.40;99.90;;;;;;4984749;28;20102;-79
2022/09/08 07:15:25;;;;;;;2.60;0.60;;;16.40;99.90;;;;;;4999556;28;20041;-83
2022/09/08 07:18:03;;;;;;;1.90;0.70;;;16.40;99.90;;;;;;4976568;28;20152;-80
2022/09/08 07:20:29;;;;;;;2.47;0.50;;;16.40;99.90;;;;;;4982121;28;20142;-86
2022/09/08 07:23:01;;;;;;;2.38;0.63;;;16.40;99.90;;;;;;4982260;28;20030;-78
2022/09/08 07:26:00;;;;;;;3.15;0.95;;;16.40;99.90;;;;;;4975205;28;20499;-85
2022/09/08 07:28:29;;;;;;;5.70;1.85;;;16.40;99.90;;;;;;4978529;28;20054;-78
2022/09/08 07:31:01;;;;;;;2.20;0.93;;;16.40;99.90;;;;;;4976955;28;20308;-82
2022/09/08 07:33:31;;;;;;;2.78;1.52;;;16.50;99.90;;;;;;4976888;28;20062;-85
2022/09/08 07:36:26;;;;;;;4.13;1.17;;;16.50;99.90;;;;;;4977178;28;20034;-80
2022/09/08 07:38:56;;;;;;;2.70;1.33;;;16.50;99.90;;;;;;4984093;28;20172;-83
2022/09/08 07:41:58;;;;;;;2.78;1.15;;;16.60;99.90;;;;;;4980310;28;20046;-82
2022/09/08 07:44:25;;;;;;;3.33;1.52;;;16.50;99.90;;;;;;4977185;28;20046;-85
2022/09/08 07:47:06;;;;;;;3.35;1.40;;;16.60;99.90;;;;;;4982927;28;20038;-81
2022/09/08 07:49:34;;;;;;;3.63;1.23;;;16.60;99.90;;;;;;4976676;28;20467;-84
2022/09/08 07:52:18;;;;;;;3.08;1.02;;;16.60;99.90;;;;;;4979011;28;20545;-80
2022/09/08 07:55:03;;;;;;;1.70;0.65;;;16.60;99.90;;;;;;4982986;28;20038;-85
2022/09/08 07:57:37;;;;;;;2.47;1.00;;;16.60;99.90;;;;;;4980558;28;20042;-81
2022/09/08 08:00:14;;;;;;;2.15;0.95;;;16.60;99.90;;;;;;4976768;28;20033;-86
2022/09/08 08:02:58;;;;;;;2.67;1.50;;;16.60;99.90;;;;;;4981411;28;20142;-80
2022/09/08 08:05:32;;;;;;;2.78;1.00;;;16.60;99.90;;;;;;4976723;28;20343;-83
2022/09/08 08:08:40;;;;;;;2.25;0.82;;;16.70;99.90;;;;;;4981741;28;20050;-85
2022/09/08 08:11:25;;;;;;;2.28;1.20;;;16.70;99.90;;;;;;4960862;28;20027;-78
2022/09/08 08:14:05;;;;;;;2.83;1.17;;;16.70;99.90;;;;;;4957798;28;20472;-83
2022/09/08 08:16:36;;;;;;;2.13;0.75;;;16.70;99.90;;;;;;4957882;28;20034;-83
2022/09/08 08:19:20;;;;;;;2.10;1.30;;;16.80;99.90;;;;;;4944945;28;20062;-84
2022/09/08 08:22:23;;;;;;;3.10;1.88;;;16.90;99.90;;;;;;4961224;28;20027;-82
2022/09/08 08:25:14;;;;;;;3.55;2.20;;;16.90;99.90;;;;;;4935353;28;20066;-86
2022/09/08 08:27:47;;;;;;;3.15;2.20;;;17.00;99.90;;;;;;4942063;28;20270;-83
2022/09/08 08:30:23;;;;;;;3.25;2.50;;;17.10;99.90;;;;;;4960400;28;20042;-84
2022/09/08 08:33:16;;;;;;;6.32;3.42;;;17.20;99.90;;;;;;4975719;28;20043;-83
2022/09/08 08:35:50;;;;;;;3.50;2.88;;;17.20;99.90;;;;;;4958192;28;20357;-84
2022/09/08 08:38:25;;;;;;;3.92;3.13;;;17.20;99.90;;;;;;4955432;28;20034;-83
2022/09/08 08:41:06;;;;;;;4.50;3.90;;;17.30;99.90;;;;;;4939741;28;20474;-83
2022/09/08 08:44:05;;;;;;;3.92;3.47;;;17.30;99.90;;;;;;4960375;28;20410;-78
2022/09/08 08:46:49;;;;;;;4.78;2.13;;;17.40;99.90;;;;;;4976349;28;20031;-85
2022/09/08 08:49:36;;;;;;;2.67;1.55;;;17.50;99.90;;;;;;4970558;28;20125;-80
2022/09/08 08:52:23;;;;;;;2.97;1.33;;;17.50;99.90;;;;;;4966452;28;20034;-81
2022/09/08 08:55:05;;;;;;;3.25;1.13;;;17.60;99.90;;;;;;4986017;28;20118;-79
2022/09/08 08:57:50;;;;;;;3.30;1.17;;;17.60;99.90;;;;;;4984345;28;20044;-78
2022/09/08 09:00:28;;;;;;;1.98;0.80;;;17.70;99.90;;;;;;5000558;28;20105;-82
2022/09/08 09:03:12;;;;;;;3.55;1.38;;;17.70;99.90;;;;;;4984343;28;20034;-78
2022/09/08 09:05:53;;;;;;;2.38;0.82;;;17.60;99.90;;;;;;4979905;28;20030;-78
2022/09/08 09:08:21;;;;;;;3.08;1.00;;;17.60;99.90;;;;;;4986315;28;20298;-81
2022/09/08 09:11:12;;;;;;;4.40;1.42;;;17.60;99.90;;;;;;4981774;28;20069;-82
2022/09/08 09:13:57;;;;;;;2.28;1.08;;;17.80;99.90;;;;;;4976607;28;20069;-79
2022/09/08 09:16:53;;;;;;;4.53;2.08;;;18.40;99.90;;;;;;4985825;28;20022;-82
2022/09/08 09:19:56;;;;;;;3.25;2.03;;;19.10;99.90;;;;;;4985236;28;20390;-82
2022/09/08 09:22:43;;;;;;;2.70;0.90;;;18.90;99.90;;;;;;4978456;28;20124;-79
2022/09/08 09:25:41;;;;;;;2.05;1.13;;;19.00;99.90;;;;;;4985204;28;20030;-82
2022/09/08 09:28:24;;;;;;;1.88;1.00;;;19.00;99.90;;;;;;4983951;28;20077;-80
2022/09/08 09:31:27;;;;;;;1.65;0.73;;;19.00;99.90;;;;;;5001527;28;20034;-77
2022/09/08 09:34:06;;;;;;;2.10;1.50;;;19.10;99.90;;;;;;4979116;28;20478;-80
2022/09/08 09:36:52;;;;;;;3.78;1.65;;;18.90;99.90;;;;;;4982287;28;20054;-80
2022/09/08 09:39:21;;;;;;;2.25;1.25;;;18.90;99.90;;;;;;4961864;28;20038;-80
2022/09/08 09:41:52;;;;;;;2.97;1.17;;;19.00;99.90;;;;;;4978642;28;20054;-81
2022/09/08 09:44:42;;;;;;;4.25;1.75;;;18.90;99.90;;;;;;4970624;28;20258;-79
2022/09/08 09:47:13;;;;;;;3.67;1.40;;;18.70;99.90;;;;;;4983904;28;20026;-78
2022/09/08 09:50:23;;;;;;;2.97;1.75;;;18.80;99.90;;;;;;4983422;28;20034;-79
2022/09/08 09:52:53;;;;;;;2.28;1.50;;;19.00;99.90;;;;;;4958765;28;20038;-79
2022/09/08 09:55:53;;;;;;;2.75;1.73;;;19.20;99.90;;;;;;5000308;28;20030;-77
2022/09/08 09:58:48;;;;;;;;;;;19.30;99.90;;;;;;4982918;28;20085;-78
2022/09/08 10:01:32;;;;;;;3.05;1.27;;;19.40;99.90;;;;;;4977260;28;19917;-77
2022/09/08 10:04:16;;;;;;;2.00;1.00;;;19.50;99.90;;;;;;4984203;28;20438;-79
2022/09/08 10:06:57;;;;;;;2.03;1.10;;;20.00;99.90;;;;;;4979086;28;20038;-78
2022/09/08 10:09:41;;;;;;;2.55;1.25;;;20.20;99.90;;;;;;4983558;28;20344;-79
2022/09/08 10:12:46;;;;;;;1.83;0.60;;;20.10;99.90;;;;;;4983843;28;20156;-79
2022/09/08 10:15:49;;;;;;;2.08;0.80;;;20.20;99.90;;;;;;4984863;28;20499;-78
2022/09/08 10:18:53;;;;;;;2.72;1.15;;;20.40;99.90;;;;;;4978923;28;20125;-78
2022/09/08 10:21:37;;;;;;;2.90;1.52;;;20.20;99.90;;;;;;4984217;28;21195;-78
2022/09/08 10:24:21;;;;;;;2.30;1.25;;;20.40;99.90;;;;;;4979061;28;20114;-78
2022/09/08 10:27:21;;;;;;;1.60;0.75;;;20.30;99.90;;;;;;4985635;28;20027;-78
2022/09/08 10:30:06;;;;;;;;;;;20.60;99.90;;;;;;4984469;28;20127;-78
2022/09/08 10:32:49;;;;;;;1.20;0.40;;;20.60;99.90;;;;;;4977136;28;19957;-79
2022/09/08 10:35:41;;;;;;;1.92;0.75;;;21.50;99.90;;;;;;4962786;28;20045;-78
2022/09/08 10:38:17;;;;;;;2.17;0.50;;;21.50;99.90;;;;;;5000276;28;20038;-78
2022/09/08 10:40:54;;;;;;;1.58;0.40;;;22.00;99.90;;;;;;4978814;28;20145;-78
2022/09/08 10:43:38;;;;;;;1.00;0.40;;;22.20;99.90;;;;;;4977856;28;20034;-78
2022/09/08 10:46:28;;;;;;;1.10;0.40;;;21.90;99.90;;;;;;4977802;28;20085;-77
2022/09/08 10:49:16;;;;;;;1.20;0.60;;;21.20;99.90;;;;;;4983480;28;20037;-78
2022/09/08 10:52:05;;;;;;;1.50;0.50;;;20.90;99.90;;;;;;4984332;28;20049;-78
2022/09/08 10:54:59;;;;;;;1.20;0.40;;;21.00;99.90;;;;;;4981848;28;20049;-77
2022/09/08 10:57:57;;;;;;;0.93;0.32;;;21.60;99.90;;;;;;5015715;28;20475;-78
2022/09/08 11:00:25;;;;;;;1.67;0.40;;;22.20;99.90;;;;;;4983842;28;20536;-77
2022/09/08 11:03:09;;;;;;;1.98;0.30;;;22.10;99.90;;;;;;4977220;28;20034;-77
2022/09/08 11:05:52;;;;;;;2.45;0.30;;;21.50;99.90;;;;;;4976642;28;20034;-78
2022/09/08 11:08:21;;;;;;;1.25;0.30;;;21.20;99.90;;;;;;4975879;28;20022;-78
2022/09/08 11:11:08;;;;;;;1.42;0.30;;;20.70;99.90;;;;;;4976239;28;20030;-77
2022/09/08 11:13:59;;;;;;;1.75;0.40;;;20.60;99.90;;;;;;4977107;28;20034;-76
2022/09/08 11:16:51;;;;;;;0.55;0.25;;;21.10;99.90;;;;;;4995670;28;20042;-79
2022/09/08 11:19:39;;;;;;;1.08;0.30;;;21.80;99.90;;;;;;4975999;28;20038;-80
2022/09/08 11:22:20;;;;;;;1.27;0.20;;;22.10;99.90;;;;;;4977710;28;20612;-79
2022/09/08 11:25:01;;;;;;;0.60;0.20;;;22.50;99.90;;;;;;4959882;28;20057;-79
2022/09/08 11:27:50;;;;;;;2.05;0.30;;;22.40;99.90;;;;;;4976525;28;20034;-78
2022/09/08 11:30:30;;;;;;;1.48;0.30;;;22.20;99.90;;;;;;4958311;28;20038;-76
2022/09/08 11:33:06;;;;;;;1.63;0.30;;;21.70;99.90;;;;;;4998219;28;20077;-77
2022/09/08 11:35:56;;;;;;;2.30;0.30;;;22.00;99.90;;;;;;4983939;28;20065;-79
2022/09/08 11:38:30;;;;;;;1.55;0.30;;;22.70;99.90;;;;;;4976464;28;20403;-78
2022/09/08 11:41:05;;;;;;;2.33;0.40;;;22.30;99.90;;;;;;4981181;28;20058;-80
2022/09/08 11:43:33;;;;;;;1.08;0.20;;;22.30;99.90;;;;;;4978210;28;20398;-78
2022/09/08 11:46:07;;;;;;;1.98;0.20;;;22.80;99.90;;;;;;4981125;28;20058;-79
2022/09/08 11:48:38;;;;;;;1.95;0.28;;;22.80;99.90;;;;;;4974883;28;20118;-75
2022/09/08 11:51:59;;;;;;;0.47;0.20;;;22.50;99.90;;;;;;4999027;28;20167;-77
2022/09/08 11:54:33;;;;;;;2.20;0.10;;;22.70;99.90;;;;;;4903637;29;20049;-79
2022/09/08 11:57:25;;;;;;;0.93;0.20;;;23.50;99.90;;;;;;4942299;29;20059;-77
2022/09/08 12:00:11;;;;;;;1.33;0.20;;;23.60;99.90;;;;;;4940888;29;20043;-78
2022/09/08 12:03:18;;;;;;;1.67;0.25;;;23.00;99.90;;;;;;4942119;29;20105;-75
2022/09/08 12:05:52;;;;;;;1.58;0.20;;;22.20;99.90;;;;;;4943013;29;20143;-74
2022/09/08 12:08:23;;;;;;;0.95;0.10;;;22.20;99.90;;;;;;4941708;28;20373;-77
2022/09/08 12:11:23;;;;;;;0.70;0.10;;;22.40;99.90;;;;;;4942629;29;20027;-75
2022/09/08 12:13:49;;;;;;;;;;;22.90;99.90;;;;;;4943978;29;20528;-76
2022/09/08 12:16:43;;;;;;;2.25;0.20;;;23.30;99.90;;;;;;4957887;28;19918;-76
2022/09/08 12:19:27;;;;;;;2.17;0.20;;;22.00;99.90;;;;;;4921895;29;20702;-76
2022/09/08 12:22:18;;;;;;;1.73;0.30;;;21.40;99.90;;;;;;4943659;28;20043;-78
2022/09/08 12:25:11;;;;;;;2.47;0.20;;;21.70;99.90;;;;;;4961290;28;20038;-78
2022/09/08 12:27:49;;;;;;;3.17;0.30;;;22.10;99.90;;;;;;4952125;28;20065;-78
2022/09/08 12:30:37;;;;;;;1.80;0.20;;;22.00;99.90;;;;;;4984325;28;20375;-78
2022/09/08 12:33:39;;;;;;;2.93;0.30;;;22.90;99.90;;;;;;4986448;28;20034;-77
2022/09/08 12:36:16;;;;;;;3.30;0.20;;;22.10;99.90;;;;;;4985919;28;20073;-77
2022/09/08 12:38:48;;;;;;;2.28;0.30;;;21.70;99.90;;;;;;4983945;28;20026;-77
2022/09/08 12:41:51;;;;;;;2.45;0.22;;;21.20;99.90;;;;;;4981101;28;20054;-79
2022/09/08 12:44:50;;;;;;;4.25;0.30;;;21.40;99.90;;;;;;4981145;28;20034;-78
2022/09/08 12:47:33;;;;;;;2.05;0.20;;;21.80;99.90;;;;;;4978602;28;20034;-75
2022/09/08 12:50:14;;;;;;;1.75;0.25;;;22.00;99.90;;;;;;4979235;28;20122;-77
2022/09/08 12:53:01;;;;;;;4.47;0.30;;;22.80;99.90;;;;;;4981757;28;20089;-75
2022/09/08 12:55:39;;;;;;;2.00;0.20;;;22.70;99.90;;;;;;4984159;28;20169;-77
2022/09/08 12:58:05;;;;;;;1.67;0.20;;;23.40;99.90;;;;;;4980712;28;20046;-77
2022/09/08 13:00:49;;;;;;;3.90;0.20;;;23.10;99.90;;;;;;4985941;28;20037;-76
2022/09/08 13:03:23;;;;;;;3.20;0.20;;;23.30;99.90;;;;;;4984122;28;20038;-76
2022/09/08 13:06:17;;;;;;;3.40;0.30;;;22.20;99.90;;;;;;4985417;28;20033;-76
2022/09/08 13:09:00;;;;;;;2.10;0.20;;;21.50;99.90;;;;;;4979101;28;20053;-75
2022/09/08 13:11:56;;;;;;;4.72;0.30;;;21.70;99.90;;;;;;4985697;28;20321;-76
2022/09/08 13:15:01;;;;;;;3.00;0.30;;;21.60;99.90;;;;;;4986807;28;20128;-76
2022/09/08 13:17:54;;;;;;;5.32;0.30;;;21.50;99.90;;;;;;4985169;28;20074;-77
2022/09/08 13:20:22;;;;;;;2.63;0.30;;;21.30;99.90;;;;;;4976656;28;20034;-79
2022/09/08 13:23:06;;;;;;;3.63;0.30;;;21.30;99.90;;;;;;4985888;28;20069;-79
2022/09/08 13:25:45;;;;;;;5.13;0.38;;;21.20;99.90;;;;;;4977497;28;20026;-76
2022/09/08 13:28:41;;;;;;;2.92;0.30;;;21.00;99.90;;;;;;4977692;28;20042;-77
2022/09/08 13:31:19;;;;;;;5.53;0.35;;;21.00;99.90;;;;;;4995012;28;20031;-76
2022/09/08 13:34:09;;;;;;;2.40;0.20;;;20.90;99.90;;;;;;4964167;28;20487;-76
2022/09/08 13:36:49;;;;;;;4.20;0.30;;;21.00;99.90;;;;;;4981963;28;20423;-78
2022/09/08 13:39:43;;;;;;;4.82;0.30;;;21.10;99.90;;;;;;4978941;28;20042;-77